• Join FlightAware (Why Join?)
  • Login
  • US Flag 
03:09AM EDT


 

Airport Tracker/Info


-or-


 

Live Flight TrackerFlight Track Log ✈ DAL2352 ✈ 02-Jul-2013 ✈ KALB - KATL

Flight Track Log - Related Links

Times and Time Zones

All times are in EDT time to prevent confusion due to time zone crossing. See the DAL2352 flight status page for this flight to view local times or setup timezone preferences in your user account.

Time Position Orientation Groundspeed Altitude Reporting Facility
EDT Latitude Longitude Course Direction KTS MPH feet Rate Location/Type
06:22AM 42.7694 -73.8089 180° South 152 175 1,300  Level Boston Center
06:23AM 42.8272 -73.8442 336° Northwest 227 261 3,400 2,160 Climbing Boston Center
06:25AM 42.5224 -74.1190 200° South  Level Estimated
06:25AM 42.8806 -73.9164 315° West 237 273 6,500  Level Boston Center
06:26AM 42.4466 -74.2242 198° South  Level Estimated
06:26AM 42.8897 -74.0072 278° West 225 259 8,300  Level Boston Center
06:27AM 42.3707 -74.3291 200° South  Level Estimated
06:27AM 42.9008 -74.1094 278° West 258 297 10,800  Level Boston Center
06:28AM 42.2948 -74.4338 180° South  Level Estimated
06:28AM 42.9158 -74.2289 280° West 310 357 12,000  Level Boston Center
06:29AM 42.8722 -74.3411 242° Southwest 338 389 13,900 2,040 Climbing Boston Center
06:30AM 42.7675 -74.3633 189° South 346 398 16,100 2,040 Climbing Boston Center
06:31AM 42.6769 -74.3069 155° Southeast 359 413 18,000 2,580 Climbing Boston Center
06:32AM 42.5797 -74.2503 157° South 372 428 21,300 2,040 Climbing Boston Center
06:33AM 42.4808 -74.1883 155° Southeast 379 436 22,100 660 Climbing Boston Center
06:34AM 42.3733 -74.1206 155° Southeast 404 465 22,700 840 Climbing Boston Center
06:35AM 42.2639 -74.0561 156° South 426 490 23,800 1,080 Climbing Boston Center
06:36AM 42.1431 -74.0444 176° South 427 491 24,900 1,020 Climbing Boston Center
06:37AM 42.0200 -74.0497 182° South 433 498 25,900 1,500 Climbing Boston Center
06:38AM 41.8992 -74.0578 183° South 439 505 27,900 1,800 Climbing Boston Center
06:39AM 41.7761 -74.0603 181° South 434 499 29,500 1,440 Climbing Boston Center
06:40AM 41.6711 -74.1131 201° Southwest 403 464 30,800 960 Climbing Boston Center
06:42AM 41.4953 -74.2581 212° Southwest 408 470 32,300 900 Climbing New York Center
06:43AM 41.3972 -74.3386 212° Southwest 419 482 33,500 840 Climbing New York Center
06:44AM 41.3011 -74.4136 210° Southwest 419 482 34,000 240 Climbing New York Center
06:45AM 41.2092 -74.4914 212° Southwest 414 476 34,000  Level New York Center
06:46AM 41.1150 -74.5744 214° Southwest 409 471 34,000  Level New York Center
06:47AM 41.0247 -74.6600 216° Southwest 409 471 34,000  Level New York Center
06:48AM 40.9422 -74.7542 221° Southwest 404 465 34,000  Level New York Center
06:49AM 40.8581 -74.8453 219° Southwest 404 465 34,000 -60 Level New York Center
06:50AM 40.7733 -74.9389 220° Southwest 398 458 33,900  Descending New York Center
06:51AM 40.6911 -75.0297 220° Southwest 398 458 34,000  Climbing New York Center
06:52AM 40.6042 -75.1228 219° Southwest 398 458 34,000  Level New York Center
06:53AM 40.5236 -75.2186 222° Southwest 398 458 34,000  Level New York Center
06:54AM 40.4408 -75.3142 221° Southwest 398 458 34,000 -60 Level New York Center
06:55AM 40.3733 -75.4378 234° Southwest 406 467 33,900  Descending New York Center
06:56AM 40.3061 -75.5558 233° Southwest 411 473 34,000  Climbing New York Center
06:57AM 40.2367 -75.6761 233° Southwest 422 486 34,000 -60 Level New York Center
06:58AM 40.1692 -75.7961 234° Southwest 422 486 33,900  Descending New York Center
06:59AM 40.1011 -75.9189 234° Southwest 422 486 34,000  Climbing New York Center
07:00AM 40.0336 -76.0331 232° Southwest 422 486 34,000  Level New York Center
07:01AM 39.9597 -76.1467 230° Southwest 422 486 34,000  Level New York Center
07:02AM 39.8836 -76.2628 230° Southwest 422 486 34,000  Level New York Center
07:03AM 39.8094 -76.3758 230° Southwest 427 491 34,000  Level New York Center
07:04AM 39.7353 -76.4861 229° Southwest 422 486 34,000  Level New York Center
07:05AM 39.6300 -76.6397 228° Southwest 408 470 34,000  Level Washington Center
07:06AM 39.5561 -76.7461 228° Southwest 413 475 34,000  Level Washington Center
07:07AM 39.4800 -76.8581 229° Southwest 413 475 34,000  Level Washington Center
07:08AM 39.4078 -76.9667 229° Southwest 413 475 34,000  Level Washington Center
07:09AM 39.3314 -77.0781 228° Southwest 413 475 34,000  Level Washington Center
07:10AM 39.2572 -77.1864 229° Southwest 413 475 34,000  Level Washington Center
07:11AM 39.1808 -77.2919 227° Southwest 413 475 34,000  Level Washington Center
07:12AM 39.1061 -77.3997 228° Southwest 413 475 34,000  Level Washington Center
07:13AM 39.0317 -77.5075 228° Southwest 413 475 34,000  Level Washington Center
07:14AM 38.9611 -77.6072 228° Southwest 419 482 34,000  Level Washington Center
07:15AM 38.8778 -77.7275 228° Southwest 411 473 34,000  Level Washington Center
07:16AM 38.8069 -77.8347 230° Southwest 411 473 34,000  Level Washington Center
07:17AM 38.7364 -77.9364 228° Southwest 418 481 34,000  Level Washington Center
07:18AM 38.6611 -78.0431 228° Southwest 413 475 34,000  Level Washington Center
07:19AM 38.5861 -78.1494 228° Southwest 408 470 34,000  Level Washington Center
07:20AM 38.5108 -78.2556 228° Southwest 414 476 34,000  Level Washington Center
07:21AM 38.4353 -78.3617 228° Southwest 414 476 34,000  Level Washington Center
07:22AM 38.3600 -78.4672 228° Southwest 408 470 34,000  Level Washington Center
07:23AM 38.2844 -78.5728 228° Southwest 408 470 34,000  Level Washington Center
07:24AM 38.2061 -78.6914 230° Southwest 408 470 34,000  Level Washington Center
07:25AM 38.1306 -78.7964 228° Southwest 408 470 34,000  Level Washington Center
07:26AM 38.0633 -78.8911 228° Southwest 408 470 34,000  Level Washington Center
07:27AM 37.9872 -78.9958 227° Southwest 408 470 34,000  Level Washington Center
07:28AM 37.9092 -79.1003 227° Southwest 408 470 34,000  Level Washington Center
07:29AM 37.8353 -79.2044 228° Southwest 408 470 34,000  Level Washington Center
07:30AM 37.7503 -79.3214 227° Southwest 408 470 34,000  Level Washington Center
07:31AM 37.6719 -79.4278 227° Southwest 415 478 34,000  Level Washington Center
07:32AM 37.6019 -79.5239 227° Southwest 415 478 34,000  Level Washington Center
07:33AM 37.5189 -79.6400 228° Southwest 415 478 34,000  Level Washington Center
07:34AM 37.4400 -79.7508 228° Southwest 421 484 34,000  Level Washington Center
07:35AM 37.3633 -79.8539 227° Southwest 426 490 34,000  Level Washington Center
07:36AM 37.2864 -79.9592 227° Southwest 426 490 34,000  Level Washington Center
07:37AM 37.2117 -80.0644 228° Southwest 421 484 34,000  Level Washington Center
07:38AM 37.1117 -80.1972 227° Southwest 411 473 34,000  Level Atlanta Center
07:39AM 37.0356 -80.2997 227° Southwest 406 467 34,000  Level Atlanta Center
07:40AM 36.9697 -80.3914 228° Southwest 406 467 34,000  Level Atlanta Center
07:41AM 36.8933 -80.4908 226° Southwest 406 467 34,000  Level Atlanta Center
07:42AM 36.8169 -80.5928 227° Southwest 406 467 34,000  Level Atlanta Center
07:43AM 36.7444 -80.6892 227° Southwest 401 461 34,000  Level Atlanta Center
07:44AM 36.6681 -80.7908 227° Southwest 402 463 34,000  Level Atlanta Center
07:45AM 36.5914 -80.8922 227° Southwest 407 468 34,000  Level Atlanta Center
07:46AM 36.5125 -80.9908 225° Southwest 402 463 34,000  Level Atlanta Center
07:47AM 36.4422 -81.0992 231° Southwest 408 470 34,000  Level Atlanta Center
07:48AM 36.4228 -81.2419 260° West 399 459 34,000  Level Atlanta Center
07:49AM 36.4092 -81.3894 264° West 422 486 34,000  Level Atlanta Center
07:50AM 36.3936 -81.5369 263° West 433 498 34,000  Level Atlanta Center
07:51AM 36.3800 -81.6919 264° West 427 491 34,000  Level Atlanta Center
07:52AM 36.3239 -81.8175 241° Southwest 420 483 34,000  Level Atlanta Center
07:53AM 36.2356 -81.8997 217° Southwest 395 455 34,000  Level Atlanta Center
07:54AM 36.1453 -81.9817 216° Southwest 406 467 34,000  Level Atlanta Center
07:55AM 36.0569 -82.0661 218° Southwest 406 467 34,000  Level Atlanta Center
07:56AM 35.9644 -82.1506 216° Southwest 412 474 34,000  Level Atlanta Center
07:57AM 35.8739 -82.2372 218° Southwest 412 474 34,000  Level Atlanta Center
07:58AM 35.7811 -82.3133 214° Southwest 412 474 34,000  Level Atlanta Center
07:59AM 35.6947 -82.4022 220° Southwest 407 468 34,000  Level Atlanta Center
08:00AM 35.6061 -82.4831 217° Southwest 407 468 34,000  Level Atlanta Center
08:01AM 35.5133 -82.5642 215° Southwest 407 468 34,000  Level Atlanta Center
08:02AM 35.4414 -82.6494 224° Southwest 402 463 34,000 -540 Level Atlanta Center
08:03AM 35.3925 -82.7597 241° Southwest 385 443 33,000 -1,320 Descending Atlanta Center
08:04AM 35.3539 -82.8750 248° West 380 437 31,400 -1,380 Descending Atlanta Center
08:05AM 35.3447 -83.0075 265° West 379 436 30,300 -720 Descending Atlanta Center
08:06AM 35.3414 -83.1272 268° West 372 428 30,000 -180 Descending Atlanta Center
08:07AM 35.3381 -83.2519 268° West 365 420 30,000 -60 Level Atlanta Center
08:08AM 35.3325 -83.3692 267° West 365 420 29,900 -600 Descending Atlanta Center
08:09AM 35.3228 -83.4914 264° West 365 420 28,800 -1,320 Descending Atlanta Center
08:10AM 35.2542 -83.5631 220° Southwest 325 374 27,300 -1,200 Descending Atlanta Center
08:11AM 35.1644 -83.5867 192° South 307 353 26,500 -1,200 Descending Atlanta Center
08:12AM 35.0708 -83.6100 192° South 315 362 25,000 -1,200 Descending Atlanta Center
08:13AM 34.9644 -83.6383 192° South 335 386 24,100 -780 Descending Atlanta Center
08:14AM 34.8683 -83.6592 190° South 377 434 23,500 -480 Descending Atlanta Center
08:15AM 34.7581 -83.6872 192° South 401 461 23,200 -780 Descending Atlanta Center
08:16AM 34.6536 -83.7156 193° South 401 461 22,000 -1,080 Descending Atlanta Center
08:17AM 34.5347 -83.7436 191° South 396 456 21,100 -900 Descending Atlanta Center
08:18AM 34.4283 -83.7694 191° South 396 456 20,300 -1,440 Descending Atlanta Center
08:19AM 34.3219 -83.7947 191° South 389 448 18,300 -2,280 Descending Atlanta Center
08:20AM 34.2219 -83.8153 190° South 384 442 15,800 -2,100 Descending Atlanta Center
08:21AM 34.1239 -83.8406 192° South 367 422 14,100 -900 Descending Atlanta Center
08:22AM 34.0383 -83.8983 209° Southwest 356 410 14,000 -1,080 Descending Atlanta Center
08:23AM 33.9675 -83.9761 222° Southwest 350 403 12,000 -1,020 Descending Atlanta Center
08:24AM 33.9006 -84.0439 220° Southwest 350 403 12,000  Level Atlanta Center
08:25AM 33.8000 -84.1333 216° Southwest 348 400 12,000  Level Atlanta TRACON
08:26AM 33.7333 -84.2000 220° Southwest 309 356 12,000  Level Atlanta TRACON
08:27AM 33.7333 -84.3000 270° West 290 334 12,000 -720 Level Atlanta TRACON
08:28AM 33.7333 -84.3833 270° West 293 337 10,600 -1,560 Descending Atlanta TRACON
08:29AM 33.7333 -84.4833 270° West 285 328 9,100 -1,620 Descending Atlanta TRACON
08:30AM 33.7333 -84.5667 270° West 269 310 7,600 -1,500 Descending Atlanta TRACON
08:31AM 33.7333 -84.6500 270° West 264 304 6,100 -1,320 Descending Atlanta TRACON
08:32AM 33.7333 -84.7500 270° West 258 297 5,000 -600 Descending Atlanta TRACON
08:33AM 33.7333 -84.8167 270° West 231 266 5,000  Level Atlanta TRACON
08:34AM 33.7000 -84.8667 231° Southwest 226 260 5,000  Level Atlanta TRACON
08:35AM 33.6500 -84.8333 151° Southeast 215 247 5,000  Level Atlanta TRACON
08:36AM 33.6500 -84.7667 90° East 204 235 5,000  Level Atlanta TRACON
08:37AM 33.6500 -84.7000 90° East 206 237 5,000  Level Atlanta TRACON